Terminal Aerodrome Forecast
Issued by NWS Mt. Holly, NJ

Home | Current Version | Previous Version | Text Only | Print | Product List | Glossary On
Versions: 1 2 3 4 5 6 7 8 9 10 11 12 13 14 15 16 17 18 19 20 21 22
000
FTUS41 KPHI 012300
TAFRDG
TAF
KRDG 012333Z 0200/0224 06006KT P6SM SCT030 OVC050
      TEMPO 0201/0204 BKN030 OVC050
     FM020400 VRB02KT P6SM BKN030
     FM020900 VRB02KT 3SM BR BKN025
     FM021500 05006KT P6SM SCT025 BKN035=

USA.gov is the U.S. government's official web portal to all federal, state and local government web resources and services.